Time;durP1;ratioP1;P1;durP2;ratioP2;P2;SDS_P1;SDS_P2;PMS_P1;PMS_P2;Temp;Humidity;BMP_temperature;BMP_pressure;BME280_temperature;BME280_humidity;BME280_pressure;Samples;Min_cycle;Max_cycle;Signal;HPM_P1;HPM_P2
2022/10/10 00:01:24;;;;;;;24.10;16.70;;;;;;;6.58;71.38;101562.87;100711;1281;139256;-68
2022/10/10 00:03:53;;;;;;;27.00;18.40;;;;;;;6.53;71.47;101560.71;100411;1290;94366;-65
2022/10/10 00:06:21;;;;;;;25.70;17.30;;;;;;;6.53;71.46;101561.06;100606;1289;138145;-70
2022/10/10 00:08:50;;;;;;;25.30;16.70;;;;;;;6.50;71.35;101559.80;100726;1292;99048;-69
2022/10/10 00:11:20;;;;;;;23.80;17.40;;;;;;;6.40;71.37;101561.64;100697;1288;106910;-69
2022/10/10 00:13:50;;;;;;;25.40;17.80;;;;;;;6.28;71.58;101563.29;100712;1287;139398;-69
2022/10/10 00:16:19;;;;;;;27.20;18.40;;;;;;;6.20;72.25;101557.56;100635;1289;94621;-69
2022/10/10 00:18:47;;;;;;;26.10;18.00;;;;;;;6.14;72.43;101556.80;100930;1287;138394;-69
2022/10/10 00:21:15;;;;;;;26.60;17.90;;;;;;;6.14;72.65;101561.55;100693;1288;98899;-70
2022/10/10 00:23:43;;;;;;;27.30;18.30;;;;;;;6.14;72.91;101564.38;100540;1287;138148;-69
2022/10/10 00:26:10;;;;;;;28.30;18.90;;;;;;;6.14;73.17;101557.51;100641;1283;94719;-68
2022/10/10 00:28:46;;;;;;;26.30;17.40;;;;;;;6.22;73.09;101556.35;100710;1291;94604;-68
2022/10/10 00:31:14;;;;;;;27.80;17.30;;;;;;;6.24;72.89;101553.55;100648;1291;137960;-68
2022/10/10 00:33:43;;;;;;;24.80;16.60;;;;;;;6.28;72.99;101552.89;100858;1292;97672;-68
2022/10/10 00:36:11;;;;;;;25.20;16.80;;;;;;;6.27;72.95;101549.35;100646;1291;138813;-69
2022/10/10 00:38:39;;;;;;;27.20;17.80;;;;;;;6.31;73.10;101546.75;100692;1287;94802;-69
2022/10/10 00:41:07;;;;;;;24.20;16.40;;;;;;;6.38;72.55;101547.68;100683;1289;94424;-68
2022/10/10 00:43:35;;;;;;;21.90;15.50;;;;;;;6.43;71.67;101541.58;100563;1284;139247;-71
2022/10/10 00:46:03;;;;;;;21.80;16.00;;;;;;;6.49;71.57;101538.27;100692;1291;98840;-69
2022/10/10 00:48:39;;;;;;;24.60;16.20;;;;;;;6.48;71.39;101543.38;100650;1290;137782;-68
2022/10/10 00:51:10;;;;;;;23.90;15.70;;;;;;;6.43;71.31;101541.91;100747;1291;95638;-67
2022/10/10 00:53:43;;;;;;;22.20;15.20;;;;;;;6.42;71.22;101537.67;100700;1284;94397;-68
2022/10/10 00:56:13;;;;;;;22.00;15.00;;;;;;;6.40;71.58;101536.42;100802;1287;107284;-69
2022/10/10 00:58:46;;;;;;;22.70;15.30;;;;;;;6.38;71.42;101537.27;100803;1291;98283;-69
2022/10/10 01:01:14;;;;;;;22.00;15.20;;;;;;;6.38;71.23;101531.10;100725;1284;137918;-70
2022/10/10 01:03:42;;;;;;;22.60;15.20;;;;;;;6.37;71.01;101528.98;100825;1287;95338;-69
2022/10/10 01:06:10;;;;;;;22.20;15.20;;;;;;;6.33;70.57;101529.49;100586;1290;138702;-69
2022/10/10 01:08:39;;;;;;;20.40;14.60;;;;;;;6.26;71.00;101535.05;100749;1290;108802;-69
2022/10/10 01:11:12;;;;;;;22.50;15.10;;;;;;;6.14;71.39;101541.81;100750;1287;98877;-70
2022/10/10 01:13:40;;;;;;;22.80;14.90;;;;;;;6.11;71.57;101545.31;100581;1287;138277;-69
2022/10/10 01:16:43;;;;;;;21.20;14.30;;;;;;;6.12;71.10;101548.67;100693;1291;95070;-68
2022/10/10 01:19:30;;;;;;;21.60;15.40;;;;;;;6.15;71.36;101548.86;100646;1288;138197;-69
2022/10/10 01:22:16;;;;;;;24.90;16.10;;;;;;;6.07;71.61;101555.84;100689;1289;108863;-69
2022/10/10 01:24:53;;;;;;;22.10;14.90;;;;;;;5.97;71.91;101555.01;100614;1305;137777;-68
2022/10/10 01:27:28;;;;;;;20.20;14.30;;;;;;;5.97;71.98;101551.83;100669;1283;107120;-69
2022/10/10 01:30:28;;;;;;;21.60;14.60;;;;;;;5.98;71.86;101557.32;100631;1288;138516;-68
2022/10/10 01:33:07;;;;;;;22.20;14.80;;;;;;;5.97;72.05;101552.90;100505;1289;94362;-66
2022/10/10 01:35:54;;;;;;;22.70;15.10;;;;;;;6.02;71.73;101554.02;100693;1290;108091;-69
2022/10/10 01:38:33;;;;;;;22.00;14.50;;;;;;;5.94;71.68;101549.49;100725;1289;98905;-68
2022/10/10 01:41:01;;;;;;;20.10;14.40;;;;;;;5.93;71.95;101543.48;100716;1289;109067;-69
2022/10/10 01:43:29;;;;;;;22.30;14.40;;;;;;;5.88;71.77;101540.27;100661;1289;137999;-68
2022/10/10 01:45:57;;;;;;;21.10;15.20;;;;;;;5.85;71.97;101542.67;100609;1287;95361;-66
2022/10/10 01:48:30;;;;;;;21.90;14.50;;;;;;;5.88;71.65;101545.02;100594;1290;138138;-70
2022/10/10 01:51:14;;;;;;;21.20;15.20;;;;;;;5.85;71.54;101542.70;100933;1291;98459;-70
2022/10/10 01:53:51;;;;;;;20.90;15.20;;;;;;;5.80;72.04;101541.58;100746;1308;108386;-67
2022/10/10 01:56:21;;;;;;;21.70;14.60;;;;;;;5.83;71.98;101545.49;100670;1292;94896;-69
2022/10/10 01:59:20;;;;;;;21.80;15.30;;;;;;;5.83;72.04;101540.73;100669;1292;94808;-69
2022/10/10 02:02:01;;;;;;;22.40;14.50;;;;;;;5.75;72.08;101542.05;100616;1287;139780;-69
2022/10/10 02:04:50;;;;;;;22.70;15.80;;;;;;;5.67;72.26;101543.02;100796;1298;99105;-70
2022/10/10 02:07:32;;;;;;;23.80;16.00;;;;;;;5.63;72.93;101542.27;100548;1282;141046;-68
2022/10/10 02:10:04;;;;;;;23.00;15.40;;;;;;;5.63;73.21;101546.66;100740;1291;94368;-69
2022/10/10 02:12:35;;;;;;;24.00;15.90;;;;;;;5.57;73.43;101545.70;100636;1291;139582;-68
2022/10/10 02:15:18;;;;;;;26.50;17.70;;;;;;;5.49;74.10;101540.85;100756;1287;107468;-66
2022/10/10 02:17:48;;;;;;;25.00;17.20;;;;;;;5.49;74.71;101546.31;100634;1281;98356;-68
2022/10/10 02:20:22;;;;;;;26.20;17.30;;;;;;;5.50;74.68;101543.70;100715;1287;137966;-61
2022/10/10 02:22:51;;;;;;;24.20;16.90;;;;;;;5.51;74.82;101544.22;100709;1289;94874;-59
2022/10/10 02:25:26;;;;;;;23.00;16.40;;;;;;;5.59;74.77;101537.81;100646;1291;138866;-61
2022/10/10 02:28:04;;;;;;;23.60;18.40;;;;;;;5.65;74.77;101535.94;100881;1284;106232;-61
2022/10/10 02:30:39;;;;;;;23.00;16.80;;;;;;;5.77;74.48;101532.54;100649;1284;138734;-62
2022/10/10 02:33:07;;;;;;;22.90;16.00;;;;;;;5.81;74.22;101526.43;100651;1290;107752;-60
2022/10/10 02:35:40;;;;;;;23.50;16.80;;;;;;;5.81;73.84;101522.56;100990;1291;94610;-60
2022/10/10 02:38:11;;;;;;;26.20;16.60;;;;;;;5.76;73.66;101516.49;100679;1287;141810;-60
2022/10/10 02:40:43;;;;;;;22.10;16.30;;;;;;;5.74;73.68;101513.67;100687;1284;107323;-61
2022/10/10 02:43:13;;;;;;;22.10;15.60;;;;;;;5.76;73.81;101515.80;100643;1283;139073;-61
2022/10/10 02:45:42;;;;;;;22.40;16.00;;;;;;;5.72;74.21;101513.47;100699;1291;107821;-59
2022/10/10 02:48:10;;;;;;;26.40;16.70;;;;;;;5.70;74.81;101509.92;100660;1287;138885;-60
2022/10/10 02:50:38;;;;;;;22.50;16.10;;;;;;;5.65;75.35;101509.67;100708;1288;95220;-61
2022/10/10 02:53:05;;;;;;;22.90;17.20;;;;;;;5.69;75.40;101507.45;100685;1289;106984;-62
2022/10/10 02:55:33;;;;;;;23.60;16.50;;;;;;;5.68;75.50;101508.14;100606;1288;138994;-60
2022/10/10 02:58:01;;;;;;;26.90;17.10;;;;;;;5.68;75.68;101510.60;100763;1298;107515;-60
2022/10/10 03:00:29;;;;;;;25.90;17.60;;;;;;;5.62;76.21;101509.13;100579;1292;138226;-60
2022/10/10 03:02:57;;;;;;;23.20;16.80;;;;;;;5.66;76.47;101509.70;100717;1288;94360;-60
2022/10/10 03:05:24;;;;;;;24.10;16.30;;;;;;;5.78;76.02;101509.48;100740;1289;106768;-60
2022/10/10 03:07:52;;;;;;;22.20;16.30;;;;;;;5.90;75.73;101510.33;100550;1288;138351;-60
2022/10/10 03:10:20;;;;;;;24.00;16.80;;;;;;;5.98;75.16;101514.14;100683;1287;108143;-61
2022/10/10 03:12:48;;;;;;;21.00;14.70;;;;;;;5.99;74.90;101512.73;100554;1287;138198;-60
2022/10/10 03:15:16;;;;;;;22.80;15.60;;;;;;;5.97;74.94;101515.33;100701;1289;94531;-62
2022/10/10 03:17:44;;;;;;;21.60;15.60;;;;;;;6.01;74.37;101515.58;100635;1289;108057;-60
2022/10/10 03:20:12;;;;;;;22.20;15.90;;;;;;;6.03;74.24;101519.31;100599;1287;138573;-61
2022/10/10 03:22:40;;;;;;;23.50;16.90;;;;;;;5.93;74.25;101520.77;100741;1289;107798;-61
2022/10/10 03:25:08;;;;;;;22.90;15.80;;;;;;;5.86;74.50;101522.45;100572;1288;138350;-61
2022/10/10 03:27:36;;;;;;;21.60;15.50;;;;;;;5.84;74.66;101521.89;100689;1288;95153;-60
2022/10/10 03:30:04;;;;;;;23.40;16.10;;;;;;;5.80;74.56;101522.90;100471;1289;138678;-59
2022/10/10 03:32:32;;;;;;;22.20;15.60;;;;;;;5.77;74.74;101523.73;100857;1289;96723;-59
2022/10/10 03:35:00;;;;;;;22.60;15.70;;;;;;;5.72;74.85;101524.57;100668;1284;108496;-60
2022/10/10 03:37:27;;;;;;;21.30;15.40;;;;;;;5.63;74.96;101522.35;100534;1289;138746;-61
2022/10/10 03:39:55;;;;;;;19.70;13.90;;;;;;;5.57;75.39;101520.86;100724;1297;94934;-59
2022/10/10 03:42:23;;;;;;;20.90;14.50;;;;;;;5.52;75.93;101522.05;100560;1284;138589;-59
2022/10/10 03:44:51;;;;;;;21.70;14.60;;;;;;;5.47;76.29;101515.99;100712;1291;99166;-61
2022/10/10 03:47:18;;;;;;;21.20;14.60;;;;;;;5.43;76.39;101513.64;100689;1287;108494;-62
2022/10/10 03:49:46;;;;;;;19.40;14.30;;;;;;;5.44;76.54;101511.36;100555;1289;138738;-62
2022/10/10 03:52:14;;;;;;;18.70;13.60;;;;;;;5.44;76.58;101514.17;100707;1289;94335;-60
2022/10/10 03:54:42;;;;;;;19.60;13.90;;;;;;;5.42;76.69;101519.79;100584;1287;138512;-59
2022/10/10 03:57:09;;;;;;;20.20;14.40;;;;;;;5.39;76.67;101513.93;100625;1288;99248;-60
2022/10/10 03:59:37;;;;;;;18.90;13.30;;;;;;;5.37;76.98;101516.55;100733;1287;106605;-60
2022/10/10 04:02:05;;;;;;;18.70;13.60;;;;;;;5.33;77.05;101516.33;100528;1288;138584;-59
2022/10/10 04:04:32;;;;;;;18.00;13.30;;;;;;;5.31;77.00;101507.48;100587;1287;94770;-59
2022/10/10 04:07:00;;;;;;;18.70;13.20;;;;;;;5.27;77.21;101512.56;100573;1284;138927;-60
2022/10/10 04:09:28;;;;;;;18.90;13.40;;;;;;;5.25;77.39;101508.65;100661;1289;98778;-61
2022/10/10 04:11:56;;;;;;;19.20;14.00;;;;;;;5.24;77.24;101509.86;100655;1289;139042;-60
2022/10/10 04:14:24;;;;;;;18.80;13.40;;;;;;;5.18;77.49;101504.70;100712;1289;95106;-60
2022/10/10 04:16:52;;;;;;;19.90;14.20;;;;;;;5.13;77.57;101507.63;100771;1288;95798;-60
2022/10/10 04:19:20;;;;;;;18.40;13.50;;;;;;;5.08;77.65;101506.84;100719;1291;138422;-61
2022/10/10 04:21:48;;;;;;;20.40;14.00;;;;;;;5.03;77.70;101509.23;100751;1288;98849;-60
2022/10/10 04:24:16;;;;;;;19.60;14.30;;;;;;;4.97;77.91;101507.91;100601;1289;138721;-60
2022/10/10 04:26:43;;;;;;;22.00;14.70;;;;;;;4.92;77.87;101510.84;100704;1287;94344;-61
2022/10/10 04:29:11;;;;;;;20.20;14.90;;;;;;;4.90;77.88;101510.27;100770;1290;95734;-59
2022/10/10 04:31:39;;;;;;;20.50;14.50;;;;;;;4.89;77.97;101507.96;100587;1284;138446;-61
2022/10/10 04:34:07;;;;;;;20.00;14.40;;;;;;;4.90;77.80;101504.11;100653;1288;98181;-60
2022/10/10 04:36:35;;;;;;;19.10;13.90;;;;;;;4.85;77.57;101498.23;100604;1289;138548;-60
2022/10/10 04:39:03;;;;;;;20.10;14.60;;;;;;;4.77;77.28;101502.51;100657;1285;94377;-61
2022/10/10 04:41:31;;;;;;;21.10;13.90;;;;;;;4.71;77.58;101507.16;100767;1287;94374;-59
2022/10/10 04:43:59;;;;;;;19.40;14.10;;;;;;;4.67;77.40;101506.41;100666;1283;138308;-61
2022/10/10 04:46:27;;;;;;;19.20;13.50;;;;;;;4.64;77.54;101503.72;100675;1281;98767;-61
2022/10/10 04:48:55;;;;;;;19.60;13.40;;;;;;;4.66;77.87;101509.03;100589;1289;138658;-60
2022/10/10 04:51:22;;;;;;;20.40;13.70;;;;;;;4.79;77.68;101512.58;100764;1292;94284;-61
2022/10/10 04:53:50;;;;;;;20.20;14.90;;;;;;;4.91;77.19;101511.86;100697;1290;94399;-60
2022/10/10 04:56:18;;;;;;;20.20;15.30;;;;;;;5.00;76.69;101510.25;100728;1290;107154;-61
2022/10/10 04:58:46;;;;;;;21.20;15.60;;;;;;;5.02;75.52;101508.34;100645;1288;98318;-61
2022/10/10 05:01:13;;;;;;;20.60;14.60;;;;;;;4.85;75.01;101505.45;100631;1290;139278;-62
2022/10/10 05:03:41;;;;;;;19.50;14.70;;;;;;;4.73;75.54;101506.66;100720;1291;94322;-61
2022/10/10 05:06:10;;;;;;;19.60;14.70;;;;;;;4.67;75.61;101509.05;100589;1287;138314;-60
2022/10/10 05:08:37;;;;;;;21.80;15.50;;;;;;;4.62;75.64;101511.79;100786;1284;107997;-62
2022/10/10 05:11:05;;;;;;;19.90;14.40;;;;;;;4.51;75.86;101518.30;100738;1282;97843;-61
2022/10/10 05:13:33;;;;;;;19.70;14.40;;;;;;;4.50;76.29;101517.04;100690;1288;138529;-60
2022/10/10 05:16:02;;;;;;;18.10;13.60;;;;;;;4.49;76.12;101516.84;100611;1289;94472;-61
2022/10/10 05:18:29;;;;;;;20.20;14.30;;;;;;;4.48;76.31;101512.25;100567;1288;139564;-62
2022/10/10 05:20:57;;;;;;;20.00;15.10;;;;;;;4.53;76.23;101508.46;100702;1284;107557;-61
2022/10/10 05:23:30;;;;;;;18.40;14.50;;;;;;;4.49;76.24;101506.63;100706;1298;97833;-62
2022/10/10 05:25:58;;;;;;;21.60;13.70;;;;;;;4.50;76.45;101506.66;100462;1284;138369;-61
2022/10/10 05:28:26;;;;;;;17.20;13.00;;;;;;;4.56;76.47;101505.16;100737;1284;95267;-61
2022/10/10 05:30:54;;;;;;;17.70;13.10;;;;;;;4.54;76.59;101496.16;100505;1282;138547;-62
2022/10/10 05:33:22;;;;;;;18.40;13.70;;;;;;;4.56;76.84;101496.38;100448;1287;107960;-61
2022/10/10 05:35:50;;;;;;;19.60;14.40;;;;;;;4.62;77.13;101491.20;100511;1281;98869;-61
2022/10/10 05:38:18;;;;;;;20.00;13.80;;;;;;;4.72;77.13;101493.98;100555;1307;137750;-61
2022/10/10 05:40:45;;;;;;;19.50;13.40;;;;;;;4.76;76.97;101496.16;100729;1306;94868;-61
2022/10/10 05:43:13;;;;;;;17.60;12.40;;;;;;;4.76;77.11;101501.09;100667;1300;139109;-61
2022/10/10 05:45:41;;;;;;;18.40;13.10;;;;;;;4.73;77.23;101509.32;100733;1291;106967;-61
2022/10/10 05:48:09;;;;;;;19.20;13.00;;;;;;;4.73;77.62;101508.27;100668;1290;138991;-61
2022/10/10 05:50:39;;;;;;;21.50;13.80;;;;;;;4.70;77.88;101506.63;100757;1290;108615;-62
2022/10/10 05:53:07;;;;;;;20.10;13.30;;;;;;;4.71;78.19;101499.08;100845;1305;94347;-61
2022/10/10 05:55:35;;;;;;;19.10;12.90;;;;;;;4.74;78.68;101492.44;100641;1290;138314;-61
2022/10/10 05:58:04;;;;;;;19.30;12.30;;;;;;;4.78;78.69;101495.66;100729;1284;107190;-61
2022/10/10 06:00:33;;;;;;;18.90;12.00;;;;;;;4.81;78.90;101491.13;100617;1291;138992;-64
2022/10/10 06:03:01;;;;;;;21.50;14.00;;;;;;;4.84;79.15;101487.48;100800;1306;106880;-61
2022/10/10 06:05:29;;;;;;;18.10;12.70;;;;;;;4.92;79.49;101489.71;100684;1290;94852;-62
2022/10/10 06:07:57;;;;;;;17.80;12.80;;;;;;;4.96;79.56;101489.60;100665;1284;138087;-62
2022/10/10 06:10:44;;;;;;;18.40;12.20;;;;;;;5.03;79.49;101492.50;100793;1284;106087;-61
2022/10/10 06:13:15;;;;;;;17.80;12.30;;;;;;;5.10;79.32;101488.02;100888;1308;138795;-60
2022/10/10 06:15:50;;;;;;;18.00;12.30;;;;;;;5.18;79.13;101493.25;100762;1287;107982;-60
2022/10/10 06:18:18;;;;;;;21.10;12.30;;;;;;;5.28;79.35;101493.90;100749;1287;138636;-60
2022/10/10 06:20:46;;;;;;;17.80;12.70;;;;;;;5.38;79.13;101493.49;100700;1289;94809;-61
2022/10/10 06:23:15;;;;;;;19.90;12.00;;;;;;;5.40;79.36;101487.90;100605;1284;107562;-62
2022/10/10 06:25:42;;;;;;;17.20;12.20;;;;;;;5.48;79.38;101488.17;100574;1284;138894;-61
2022/10/10 06:28:11;;;;;;;20.50;12.60;;;;;;;5.60;79.26;101489.70;100613;1282;107358;-62
2022/10/10 06:30:43;;;;;;;17.50;11.70;;;;;;;5.70;79.26;101489.84;100669;1290;140153;-62
2022/10/10 06:33:11;;;;;;;18.10;12.10;;;;;;;5.75;79.07;101489.02;100654;1284;94737;-61
2022/10/10 06:35:41;;;;;;;18.50;12.30;;;;;;;5.79;79.13;101489.58;100758;1284;107212;-60
2022/10/10 06:38:10;;;;;;;18.40;12.70;;;;;;;5.88;79.46;101488.80;100663;1288;138622;-62
2022/10/10 06:40:38;;;;;;;16.50;11.50;;;;;;;5.95;79.25;101485.71;100753;1281;109419;-62
2022/10/10 06:43:10;;;;;;;18.90;12.00;;;;;;;6.01;79.20;101484.02;100775;1280;138763;-61
2022/10/10 06:45:41;;;;;;;20.20;12.30;;;;;;;6.04;79.06;101481.24;100795;1280;94279;-61
2022/10/10 06:48:11;;;;;;;18.00;12.10;;;;;;;6.09;79.10;101479.70;100727;1281;138698;-60
2022/10/10 06:50:39;;;;;;;17.80;11.50;;;;;;;6.15;79.03;101478.69;100793;1281;97670;-61
2022/10/10 06:53:06;;;;;;;18.00;12.40;;;;;;;6.19;78.65;101471.15;101175;1291;107167;-61
2022/10/10 06:55:34;;;;;;;18.60;13.00;;;;;;;6.28;78.77;101474.05;100661;1289;138686;-60
2022/10/10 06:58:02;;;;;;;19.70;12.00;;;;;;;6.41;78.88;101475.75;100748;1304;94600;-61
2022/10/10 07:00:30;;;;;;;22.10;12.60;;;;;;;6.50;78.26;101478.64;100698;1287;139474;-60
2022/10/10 07:02:58;;;;;;;17.50;11.60;;;;;;;6.58;78.37;101477.11;100833;1290;96999;-60
2022/10/10 07:05:26;;;;;;;18.20;12.70;;;;;;;6.68;77.88;101478.77;100715;1289;108393;-60
2022/10/10 07:07:53;;;;;;;18.40;12.40;;;;;;;6.75;77.75;101481.47;100430;1280;138901;-59
2022/10/10 07:10:21;;;;;;;21.00;13.30;;;;;;;6.84;77.77;101482.94;100704;1287;94738;-62
2022/10/10 07:12:49;;;;;;;18.20;12.00;;;;;;;6.92;77.38;101474.16;100667;1281;138727;-61
2022/10/10 07:15:17;;;;;;;20.80;12.50;;;;;;;6.96;76.74;101471.19;100759;1304;97111;-61
2022/10/10 07:17:45;;;;;;;18.10;12.90;;;;;;;6.97;76.38;101470.67;100995;1290;107322;-62
2022/10/10 07:20:20;;;;;;;18.60;12.60;;;;;;;6.98;76.75;101477.73;100783;1282;94887;-61
2022/10/10 07:22:47;;;;;;;19.00;12.70;;;;;;;7.06;76.90;101470.54;100750;1288;95719;-60
2022/10/10 07:25:16;;;;;;;20.50;13.60;;;;;;;7.25;76.85;101474.69;100725;1280;138876;-60
2022/10/10 07:27:44;;;;;;;18.20;12.30;;;;;;;7.41;76.73;101476.55;100761;1281;99256;-60
2022/10/10 07:30:12;;;;;;;19.10;12.00;;;;;;;7.50;76.48;101475.86;100665;1311;138378;-61
2022/10/10 07:32:40;;;;;;;17.30;12.00;;;;;;;7.57;76.39;101474.12;100778;1288;95455;-60
2022/10/10 07:35:10;;;;;;;18.60;12.10;;;;;;;7.60;76.42;101469.89;100754;1296;94490;-61
2022/10/10 07:37:38;;;;;;;19.90;12.10;;;;;;;7.65;76.52;101470.79;100830;1306;139123;-60
2022/10/10 07:40:08;;;;;;;17.90;12.50;;;;;;;7.75;76.52;101468.34;100743;1281;97825;-60
2022/10/10 07:42:35;;;;;;;15.90;10.80;;;;;;;7.89;76.53;101462.71;100603;1283;139707;-61
2022/10/10 07:45:04;;;;;;;18.70;12.20;;;;;;;8.07;76.08;101456.91;100772;1288;94653;-61
2022/10/10 07:47:32;;;;;;;18.30;11.70;;;;;;;8.26;76.21;101463.29;100812;1288;94435;-63
2022/10/10 07:50:00;;;;;;;15.80;10.50;;;;;;;8.41;75.48;101460.30;100615;1288;138917;-61
2022/10/10 07:52:27;;;;;;;13.10;9.20;;;;;;;8.54;75.42;101450.04;100771;1288;98568;-61
2022/10/10 07:54:55;;;;;;;15.50;9.70;;;;;;;8.68;74.66;101451.79;100650;1280;138417;-62
2022/10/10 07:57:23;;;;;;;13.80;9.60;;;;;;;8.82;74.28;101446.45;100739;1281;94254;-60
2022/10/10 07:59:51;;;;;;;15.70;9.30;;;;;;;8.95;73.91;101443.59;100874;1280;94693;-62
2022/10/10 08:02:19;;;;;;;13.20;9.10;;;;;;;9.05;73.44;101445.16;100824;1298;107192;-61
2022/10/10 08:04:47;;;;;;;12.50;8.70;;;;;;;9.16;72.91;101446.36;100831;1288;98492;-62
2022/10/10 08:07:15;;;;;;;12.30;8.30;;;;;;;9.26;71.75;101450.94;100744;1305;138848;-61
2022/10/10 08:09:42;;;;;;;13.30;9.10;;;;;;;9.34;71.66;101450.71;100816;1281;94553;-61
2022/10/10 08:12:10;;;;;;;12.20;8.00;;;;;;;9.43;71.59;101449.08;100744;1288;138580;-61
2022/10/10 08:14:38;;;;;;;13.50;8.40;;;;;;;9.54;71.76;101449.02;100824;1312;108614;-60
2022/10/10 08:17:06;;;;;;;12.20;8.20;;;;;;;9.68;71.48;101447.18;100820;1297;98857;-62
2022/10/10 08:19:34;;;;;;;13.10;8.40;;;;;;;9.88;70.68;101445.98;100740;1287;138997;-60
2022/10/10 08:22:01;;;;;;;13.40;7.50;;;;;;;10.03;70.61;101441.81;100816;1308;95641;-61
2022/10/10 08:24:29;;;;;;;13.00;8.30;;;;;;;10.08;69.40;101436.27;100721;1281;138784;-61
2022/10/10 08:26:57;;;;;;;12.70;8.40;;;;;;;10.12;69.34;101437.85;100813;1280;107749;-60
2022/10/10 08:29:25;;;;;;;13.40;8.80;;;;;;;10.12;68.87;101434.46;100780;1280;98881;-61
2022/10/10 08:31:53;;;;;;;12.80;8.80;;;;;;;10.17;69.67;101433.36;100524;1288;138242;-60
2022/10/10 08:34:20;;;;;;;11.70;8.40;;;;;;;10.28;70.03;101434.16;100844;1281;94751;-60
2022/10/10 08:36:49;;;;;;;12.60;8.70;;;;;;;10.40;69.27;101426.45;100716;1287;138226;-60
2022/10/10 08:39:16;;;;;;;14.60;8.50;;;;;;;10.50;68.81;101420.70;100807;1304;108718;-62
2022/10/10 08:41:52;;;;;;;10.40;6.90;;;;;;;10.58;68.44;101420.79;100792;1288;98448;-59
2022/10/10 08:44:38;;;;;;;12.20;7.70;;;;;;;10.69;68.04;101411.79;100860;1281;106620;-60
2022/10/10 08:47:20;;;;;;;12.00;7.20;;;;;;;10.87;67.77;101401.46;100808;1288;94319;-61
2022/10/10 08:49:59;;;;;;;10.70;6.20;;;;;;;11.75;66.11;101396.35;100712;1288;138474;-62
2022/10/10 08:52:42;;;;;;;9.90;6.10;;;;;;;14.58;60.24;101386.88;100864;1290;107264;-60
2022/10/10 08:55:17;;;;;;;9.70;5.90;;;;;;;16.48;53.48;101379.19;100727;1304;138633;-60
2022/10/10 08:58:15;;;;;;;8.30;5.20;;;;;;;16.12;52.05;101380.77;100835;1312;109294;-60
2022/10/10 09:00:49;;;;;;;9.10;5.30;;;;;;;15.30;53.48;101384.05;100810;1289;138185;-60
2022/10/10 09:03:25;;;;;;;7.60;4.70;;;;;;;14.75;54.14;101383.47;100818;1297;95593;-62
2022/10/10 09:06:09;;;;;;;7.70;5.00;;;;;;;14.23;55.40;101381.09;100842;1281;137745;-62
2022/10/10 09:08:48;;;;;;;7.50;4.80;;;;;;;13.87;56.89;101381.11;100723;1288;99995;-60
2022/10/10 09:11:35;;;;;;;8.70;4.90;;;;;;;13.63;57.45;101381.13;100795;1288;107603;-60
2022/10/10 09:14:31;;;;;;;9.20;5.10;;;;;;;13.46;57.98;101376.34;100737;1312;137825;-59
2022/10/10 09:17:24;;;;;;;8.70;4.90;;;;;;;13.45;58.57;101369.05;100804;1288;94722;-62
2022/10/10 09:20:13;;;;;;;7.50;4.70;;;;;;;14.82;55.02;101357.48;100671;1298;137972;-60
2022/10/10 09:23:02;;;;;;;7.50;3.90;;;;;;;16.84;49.38;101357.25;100821;1291;97872;-61
2022/10/10 09:25:37;;;;;;;7.60;4.00;;;;;;;18.35;47.05;101349.63;100701;1296;138152;-61
2022/10/10 09:28:13;;;;;;;7.40;3.80;;;;;;;19.40;44.51;101352.80;100828;1312;94865;-61
2022/10/10 09:30:48;;;;;;;6.90;3.60;;;;;;;20.17;42.05;101350.69;100724;1288;137749;-63
2022/10/10 09:33:48;;;;;;;7.50;4.10;;;;;;;20.76;40.36;101352.10;100841;1281;108667;-62
2022/10/10 09:36:22;;;;;;;8.40;4.10;;;;;;;22.25;38.18;101346.77;100740;1298;138159;-61
2022/10/10 09:38:58;;;;;;;9.60;4.80;;;;;;;23.71;37.00;101343.25;100883;1287;107997;-60
2022/10/10 09:41:33;;;;;;;7.00;3.90;;;;;;;24.78;34.93;101343.34;101004;1288;94721;-61
2022/10/10 09:44:06;;;;;;;6.10;3.40;;;;;;;25.68;33.55;101343.09;100694;1288;137702;-61
2022/10/10 09:46:36;;;;;;;5.80;2.80;;;;;;;26.39;32.95;101333.86;100834;1288;108044;-62
2022/10/10 09:49:04;;;;;;;5.70;2.80;;;;;;;26.63;29.54;101336.52;100806;1288;137901;-61
2022/10/10 09:51:33;;;;;;;4.80;2.70;;;;;;;26.75;30.48;101336.30;100814;1312;107578;-61
2022/10/10 09:54:01;;;;;;;4.80;2.20;;;;;;;27.45;28.62;101333.80;100984;1288;138002;-62
2022/10/10 09:56:41;;;;;;;6.30;2.70;;;;;;;27.50;28.20;101335.17;100824;1281;94675;-61
2022/10/10 09:59:43;;;;;;;7.10;3.10;;;;;;;28.06;28.04;101332.37;100935;1280;106141;-61
2022/10/10 10:02:13;;;;;;;7.10;3.10;;;;;;;28.75;27.76;101330.81;100752;1312;138394;-62
2022/10/10 10:04:42;;;;;;;7.10;3.20;;;;;;;29.18;27.41;101330.50;100873;1282;99871;-62
2022/10/10 10:07:26;;;;;;;5.70;2.60;;;;;;;29.23;26.49;101332.60;100780;1304;137672;-62
2022/10/10 10:09:58;;;;;;;5.40;2.40;;;;;;;30.16;26.55;101329.16;100843;1287;95542;-62
2022/10/10 10:12:38;;;;;;;5.80;2.30;;;;;;;30.86;24.38;101330.73;100916;1288;137847;-61
2022/10/10 10:15:17;;;;;;;5.80;2.30;;;;;;;31.00;24.46;101324.94;100844;1289;94848;-61
2022/10/10 10:17:45;;;;;;;5.60;2.30;;;;;;;31.44;23.72;101320.95;100973;1304;108740;-61
2022/10/10 10:20:28;;;;;;;5.60;1.90;;;;;;;31.77;23.30;101310.92;100762;1297;137522;-61
2022/10/10 10:22:56;;;;;;;5.10;2.00;;;;;;;30.78;23.63;101312.13;100837;1304;94602;-61
2022/10/10 10:25:31;;;;;;;5.40;2.30;;;;;;;28.00;25.51;101318.58;100721;1281;138423;-60
2022/10/10 10:28:11;;;;;;;4.70;2.20;;;;;;;26.17;28.19;101309.52;100869;1288;98073;-62
2022/10/10 10:30:41;;;;;;;4.60;2.00;;;;;;;25.82;28.55;101310.70;100753;1306;137671;-61
2022/10/10 10:33:18;;;;;;;5.50;2.20;;;;;;;24.04;30.53;101300.77;100872;1304;95264;-62
2022/10/10 10:35:45;;;;;;;4.70;2.00;;;;;;;22.45;33.09;101305.79;100853;1288;94816;-62
2022/10/10 10:38:18;;;;;;;5.20;2.10;;;;;;;21.16;34.70;101309.13;100749;1296;137460;-61
2022/10/10 10:40:51;;;;;;;5.80;2.20;;;;;;;19.89;36.49;101305.92;100849;1288;97641;-61
2022/10/10 10:43:55;;;;;;;4.70;1.90;;;;;;;18.94;39.02;101304.23;101094;1274;141901;-83
2022/10/10 10:46:33;;;;;;;5.40;2.10;;;;;;;18.00;40.94;101298.70;102988;1274;141756;-82
2022/10/10 10:49:39;;;;;;;6.30;2.30;;;;;;;17.45;41.94;101302.38;102432;1287;136837;-81
2022/10/10 10:52:29;;;;;;;5.20;2.00;;;;;;;17.03;43.33;101300.05;102732;1297;108814;-79
2022/10/10 10:55:18;;;;;;;5.00;2.30;;;;;;;16.71;43.64;101290.67;102568;1304;139115;-80
2022/10/10 10:58:14;;;;;;;6.30;2.30;;;;;;;16.43;44.67;101289.52;102360;1305;106606;-81
2022/10/10 11:01:05;;;;;;;6.00;2.80;;;;;;;16.18;46.13;101281.13;102268;1287;140170;-81
2022/10/10 11:04:10;;;;;;;7.20;2.90;;;;;;;16.08;46.53;101273.96;102144;1291;140924;-80
2022/10/10 11:07:00;;;;;;;6.00;2.40;;;;;;;15.98;47.14;101275.40;102295;1290;108543;-81
2022/10/10 11:09:59;;;;;;;4.70;1.90;;;;;;;15.79;47.08;101274.39;102426;1297;138059;-83
2022/10/10 11:12:55;;;;;;;6.50;2.60;;;;;;;15.56;47.05;101270.68;102578;1290;106774;-81
2022/10/10 11:15:31;;;;;;;5.70;2.50;;;;;;;15.38;46.58;101266.95;102383;1305;138251;-82
2022/10/10 11:18:31;;;;;;;5.90;2.20;;;;;;;15.27;47.42;101268.75;102314;1304;95285;-81
2022/10/10 11:21:07;;;;;;;6.00;2.30;;;;;;;15.19;48.32;101264.01;102147;1304;139326;-81
2022/10/10 11:23:41;;;;;;;5.80;2.40;;;;;;;15.23;48.98;101265.66;102560;1304;97121;-81
2022/10/10 11:26:36;;;;;;;5.00;2.30;;;;;;;15.29;49.13;101261.70;102784;1291;108720;-82
2022/10/10 11:29:17;;;;;;;4.40;2.10;;;;;;;15.28;48.73;101258.33;102276;1291;138096;-79
2022/10/10 11:31:54;;;;;;;5.60;2.00;;;;;;;15.14;48.16;101255.20;102245;1294;94709;-80